Lanai Airport Lanai City US
ICAO: PHNY
IATA:
Category: Medium
Scheduled Services:

Elevation: 1308 ft
TransAlt. 0 ft.

Airport Communications:
ASOS:118.375
HONOLULU CNTR:119.3
CTAF:122.9
RDO:117.7

PHNY Zoom In..

Runways:

(A) RW 03 length 5001 ft width 150 ft
ILS 111.10 / hdg 33

(B) RW 21 length 5001 ft width 150 ft
---- / hdg 213

Location; PHNY
Day. 21 / Time. 23.56 Zulu
* Altimeter: 30.09
* Temperature: 25° c. 77°f.
* Wind from: 030° Speed 13 kn.
Dewpoint: 19° c.
Visibility: 10 Statute Miles.
Clouds: Broken 2600 ft.
Clouds: Overcast 3400 ft.

PHNY 212356Z AUTO 03013KT 10SM BKN026 OVC034 25/19 A3009 RMK AO2 SLP170 T02500194 10256 20206 58013


Wind From 030°
Speed 13 kn.

  YouTube Music Video
 
jpsmedia.com for Web Design  worldairports.se 2018   terms of use